Time;durP1;ratioP1;P1;durP2;ratioP2;P2;SDS_P1;SDS_P2;PMS_P1;PMS_P2;Temp;Humidity;BMP_temperature;BMP_pressure;BME280_temperature;BME280_humidity;BME280_pressure;Samples;Min_cycle;Max_cycle;Signal;HPM_P1;HPM_P2
2023/09/14 00:01:00;;;;;;;2.33;1.20;;;12.90;99.90;;;;;;5038530;28;20052;-56
2023/09/14 00:03:26;;;;;;;3.25;1.27;;;12.90;99.90;;;;;;5051075;28;20053;-56
2023/09/14 00:05:51;;;;;;;2.47;1.33;;;12.90;99.90;;;;;;5048259;28;20113;-56
2023/09/14 00:08:17;;;;;;;2.65;1.33;;;12.80;99.90;;;;;;5058881;28;20053;-57
2023/09/14 00:10:43;;;;;;;3.38;1.08;;;12.80;99.90;;;;;;5055507;28;20863;-56
2023/09/14 00:13:10;;;;;;;3.28;1.52;;;12.80;99.90;;;;;;5063130;28;20083;-57
2023/09/14 00:15:38;;;;;;;4.00;1.95;;;12.80;99.90;;;;;;5059052;28;20160;-56
2023/09/14 00:18:04;;;;;;;2.30;0.88;;;12.80;99.90;;;;;;5063012;28;20410;-56
2023/09/14 00:20:31;;;;;;;5.82;1.85;;;12.90;99.90;;;;;;5056236;28;20065;-56
2023/09/14 00:22:57;;;;;;;5.00;1.67;;;12.90;99.90;;;;;;5062105;28;20106;-56
2023/09/14 00:25:26;;;;;;;3.67;1.45;;;12.80;99.90;;;;;;5018495;28;1166203;-56
2023/09/14 00:27:53;;;;;;;2.60;1.25;;;12.80;99.90;;;;;;5039934;28;20067;-57
2023/09/14 00:30:20;;;;;;;5.47;2.55;;;12.80;99.90;;;;;;5061766;28;20052;-57
2023/09/14 00:32:49;;;;;;;3.42;2.15;;;12.80;99.90;;;;;;5059391;28;20137;-56
2023/09/14 00:35:16;;;;;;;2.70;1.63;;;12.80;99.90;;;;;;5062418;28;20057;-57
2023/09/14 00:37:42;;;;;;;4.68;2.13;;;12.80;99.90;;;;;;5058316;28;20056;-57
2023/09/14 00:40:11;;;;;;;5.30;2.35;;;12.80;99.90;;;;;;5062415;28;20088;-57
2023/09/14 00:42:48;;;;;;;6.15;1.85;;;12.80;99.90;;;;;;5031691;28;20044;-56
2023/09/14 00:45:17;;;;;;;4.45;1.60;;;12.90;99.90;;;;;;5027704;28;20143;-56
2023/09/14 00:47:46;;;;;;;3.38;1.25;;;12.90;99.90;;;;;;5035303;28;20060;-56
2023/09/14 00:50:16;;;;;;;4.32;1.50;;;12.80;99.90;;;;;;5043882;28;20041;-56
2023/09/14 00:53:03;;;;;;;3.92;1.67;;;12.90;99.90;;;;;;5054170;28;20094;-56
2023/09/14 00:55:30;;;;;;;5.38;1.10;;;12.90;99.90;;;;;;5058767;28;20048;-56
2023/09/14 00:57:56;;;;;;;1.75;1.58;;;12.80;99.90;;;;;;5057462;28;20060;-56
2023/09/14 01:00:26;;;;;;;7.03;1.52;;;12.90;99.90;;;;;;5061778;28;20144;-56
2023/09/14 01:02:58;;;;;;;3.80;1.60;;;12.90;99.90;;;;;;5058514;28;20060;-57
2023/09/14 01:07:50;;;;;;;2.58;1.70;;;12.90;99.90;;;;;;5036000;28;20113;-56
2023/09/14 01:10:16;;;;;;;6.65;1.77;;;12.90;99.90;;;;;;5060626;28;20064;-56
2023/09/14 01:12:48;;;;;;;4.57;1.83;;;12.90;99.90;;;;;;5056187;28;20064;-56
2023/09/14 01:15:25;;;;;;;4.60;2.20;;;12.90;99.90;;;;;;5054942;28;20099;-57
2023/09/14 01:18:05;;;;;;;6.22;1.75;;;12.90;99.90;;;;;;5046948;28;20388;-56
2023/09/14 01:20:52;;;;;;;3.08;1.70;;;12.90;99.90;;;;;;5043741;28;20052;-56
2023/09/14 01:25:52;;;;;;;3.47;0.95;;;12.90;99.90;;;;;;5056456;28;21231;-56
2023/09/14 01:28:19;;;;;;;3.42;1.55;;;13.00;99.90;;;;;;5056862;28;20087;-56
2023/09/14 01:30:44;;;;;;;2.88;1.30;;;12.90;99.90;;;;;;5039631;28;21595;-56
2023/09/14 01:33:14;;;;;;;4.22;1.33;;;12.90;99.90;;;;;;5060911;28;20062;-56
2023/09/14 01:35:54;;;;;;;2.35;1.35;;;12.90;99.90;;;;;;5051566;28;20726;-55
2023/09/14 01:38:25;;;;;;;5.93;1.88;;;12.90;99.90;;;;;;5047093;28;20056;-56
2023/09/14 01:40:51;;;;;;;3.92;1.65;;;12.90;99.90;;;;;;5059490;28;20112;-56
2023/09/14 01:43:18;;;;;;;3.47;1.50;;;12.90;99.90;;;;;;5061688;28;20056;-56
2023/09/14 01:45:45;;;;;;;2.45;1.38;;;12.90;99.90;;;;;;5054760;28;20064;-56
2023/09/14 01:48:15;;;;;;;3.85;1.45;;;12.90;99.90;;;;;;5056508;28;20080;-56
2023/09/14 01:50:41;;;;;;;3.83;2.00;;;13.00;99.90;;;;;;5058136;28;20056;-56
2023/09/14 01:53:07;;;;;;;6.70;1.67;;;13.00;99.90;;;;;;5061037;28;20133;-56
2023/09/14 01:55:33;;;;;;;5.05;1.38;;;13.00;99.90;;;;;;5039795;28;21751;-56
2023/09/14 01:57:59;;;;;;;5.68;1.80;;;13.00;99.90;;;;;;5060198;28;20493;-56
2023/09/14 02:00:26;;;;;;;4.63;1.63;;;13.00;99.90;;;;;;5057805;28;20098;-56
2023/09/14 02:02:54;;;;;;;4.45;1.35;;;13.00;99.90;;;;;;5056898;28;20052;-56
2023/09/14 02:05:20;;;;;;;5.68;2.03;;;13.00;99.90;;;;;;5035445;28;20061;-56
2023/09/14 02:07:47;;;;;;;3.75;1.20;;;12.90;99.90;;;;;;5042802;28;20065;-56
2023/09/14 02:10:16;;;;;;;5.00;1.35;;;12.90;99.90;;;;;;5050548;28;20064;-56
2023/09/14 02:12:42;;;;;;;3.83;1.52;;;12.90;99.90;;;;;;5037358;28;20090;-56
2023/09/14 02:15:11;;;;;;;6.00;1.52;;;13.00;99.90;;;;;;5046999;28;20048;-56
2023/09/14 02:17:37;;;;;;;11.90;1.85;;;12.90;99.90;;;;;;5057188;28;20067;-56
2023/09/14 02:20:05;;;;;;;3.88;1.23;;;12.90;99.90;;;;;;5058302;28;20052;-56
2023/09/14 02:22:31;;;;;;;2.17;1.00;;;12.90;99.90;;;;;;5058933;28;20061;-55
2023/09/14 02:24:56;;;;;;;2.92;1.40;;;12.90;99.90;;;;;;5060266;28;20491;-56
2023/09/14 02:27:25;;;;;;;4.30;1.58;;;12.90;99.90;;;;;;5055908;28;20049;-56
2023/09/14 02:29:55;;;;;;;1.70;1.13;;;12.90;99.90;;;;;;5057209;28;20079;-56
2023/09/14 02:32:25;;;;;;;2.63;1.38;;;12.80;99.90;;;;;;5060153;28;20053;-56
2023/09/14 02:34:51;;;;;;;2.65;1.60;;;12.80;99.90;;;;;;5058141;28;20121;-56
2023/09/14 02:37:16;;;;;;;4.45;1.20;;;12.80;99.90;;;;;;5055260;28;20147;-56
2023/09/14 02:39:42;;;;;;;3.53;1.45;;;12.80;99.90;;;;;;5057529;28;20080;-55
2023/09/14 02:42:08;;;;;;;3.28;1.35;;;12.80;99.90;;;;;;5060420;28;20056;-56
2023/09/14 02:44:35;;;;;;;4.43;1.35;;;12.80;99.90;;;;;;5058078;28;20058;-56
2023/09/14 02:47:01;;;;;;;5.15;1.90;;;12.80;99.90;;;;;;5058243;28;20118;-57
2023/09/14 02:49:27;;;;;;;6.57;1.85;;;12.80;99.90;;;;;;5040184;28;20056;-58
2023/09/14 02:51:52;;;;;;;4.45;1.17;;;12.80;99.90;;;;;;5053258;28;20061;-57
2023/09/14 02:54:18;;;;;;;2.28;1.10;;;12.80;99.90;;;;;;5035687;28;20134;-58
2023/09/14 02:56:44;;;;;;;3.25;1.40;;;12.80;99.90;;;;;;5056999;28;20142;-57
2023/09/14 02:59:10;;;;;;;3.70;1.65;;;12.80;99.90;;;;;;5059463;28;20151;-59
2023/09/14 03:01:35;;;;;;;3.47;1.15;;;12.70;99.90;;;;;;5055483;28;20122;-56
2023/09/14 03:04:01;;;;;;;2.33;1.70;;;12.70;99.90;;;;;;5060133;28;20171;-56
2023/09/14 03:06:27;;;;;;;5.47;1.33;;;12.60;99.90;;;;;;5058071;28;20118;-55
2023/09/14 03:08:52;;;;;;;2.63;1.20;;;12.60;99.90;;;;;;5055049;28;20185;-56
2023/09/14 03:11:18;;;;;;;6.00;2.90;;;12.70;99.90;;;;;;5037919;28;20056;-56
2023/09/14 03:13:44;;;;;;;1.70;1.20;;;12.40;99.90;;;;;;5056918;28;20072;-56
2023/09/14 03:16:10;;;;;;;4.97;1.50;;;12.40;99.90;;;;;;5059994;28;20471;-56
2023/09/14 03:18:35;;;;;;;2.50;1.40;;;12.30;99.90;;;;;;5057260;28;20575;-56
2023/09/14 03:21:01;;;;;;;4.18;1.23;;;12.20;99.90;;;;;;5059680;28;20064;-57
2023/09/14 03:23:27;;;;;;;3.42;1.55;;;12.20;99.90;;;;;;5058344;28;20056;-56
2023/09/14 03:25:55;;;;;;;5.85;1.98;;;12.00;99.90;;;;;;5055150;28;20570;-56
2023/09/14 03:28:21;;;;;;;2.33;1.13;;;12.00;99.90;;;;;;5058590;28;20536;-56
2023/09/14 03:30:46;;;;;;;4.57;1.75;;;11.90;99.90;;;;;;5054923;28;20056;-56
2023/09/14 03:33:12;;;;;;;6.75;1.35;;;11.80;99.90;;;;;;5057965;28;20053;-57
2023/09/14 03:35:38;;;;;;;4.50;2.63;;;11.70;99.90;;;;;;5055453;28;20140;-56
2023/09/14 03:38:04;;;;;;;3.03;1.20;;;11.70;99.90;;;;;;5056998;28;20063;-56
2023/09/14 03:40:30;;;;;;;2.50;1.70;;;11.60;99.90;;;;;;5056653;28;20049;-55
2023/09/14 03:42:55;;;;;;;2.75;1.80;;;11.50;99.90;;;;;;5056777;28;20498;-57
2023/09/14 03:45:25;;;;;;;2.15;1.20;;;11.40;99.90;;;;;;5060379;28;20750;-57
2023/09/14 03:47:51;;;;;;;4.85;1.25;;;11.40;99.90;;;;;;5057618;28;20060;-57
2023/09/14 03:50:17;;;;;;;2.35;1.55;;;11.40;99.90;;;;;;5043867;28;20048;-56
2023/09/14 03:52:43;;;;;;;1.83;1.30;;;11.30;99.90;;;;;;5051358;28;20063;-57
2023/09/14 03:55:09;;;;;;;3.50;1.27;;;11.20;99.90;;;;;;5062278;28;20825;-57
2023/09/14 03:57:35;;;;;;;3.10;1.20;;;11.20;99.90;;;;;;5039630;28;20053;-57
2023/09/14 04:00:00;;;;;;;3.53;1.80;;;11.10;99.90;;;;;;5039397;28;20059;-56
2023/09/14 04:02:26;;;;;;;1.63;1.10;;;11.10;99.90;;;;;;5061050;28;20060;-56
2023/09/14 04:04:52;;;;;;;4.45;2.30;;;11.00;99.90;;;;;;5042424;28;20110;-56
2023/09/14 04:07:18;;;;;;;8.70;1.50;;;11.00;99.90;;;;;;5060997;28;20048;-56
2023/09/14 04:09:44;;;;;;;2.92;1.92;;;10.90;99.90;;;;;;5057417;28;20514;-56
2023/09/14 04:12:10;;;;;;;3.13;1.20;;;10.90;99.90;;;;;;5060359;28;20056;-56
2023/09/14 04:14:35;;;;;;;3.97;1.25;;;10.80;99.90;;;;;;5058573;28;20056;-56
2023/09/14 04:17:02;;;;;;;3.15;1.52;;;10.80;99.90;;;;;;5061512;28;20163;-56
2023/09/14 04:19:29;;;;;;;2.70;1.40;;;10.50;99.90;;;;;;5059951;28;20056;-56
2023/09/14 04:21:56;;;;;;;3.72;1.55;;;10.70;99.90;;;;;;5053386;28;20056;-56
2023/09/14 04:26:47;;;;;;;2.67;1.13;;;10.50;99.90;;;;;;5055620;28;20052;-56
2023/09/14 04:29:13;;;;;;;2.80;1.10;;;10.40;99.90;;;;;;5039875;28;20057;-56
2023/09/14 04:31:42;;;;;;;4.25;1.63;;;10.40;99.90;;;;;;5057383;28;20079;-56
2023/09/14 04:34:08;;;;;;;2.53;1.20;;;10.30;99.90;;;;;;5059126;28;20820;-56
2023/09/14 04:36:34;;;;;;;2.58;1.27;;;10.40;99.90;;;;;;5052976;28;20134;-56
2023/09/14 04:39:04;;;;;;;1.52;1.30;;;10.30;99.90;;;;;;5060986;28;20114;-57
2023/09/14 04:41:33;;;;;;;2.47;1.20;;;10.30;99.90;;;;;;5058437;28;20138;-55
2023/09/14 04:43:58;;;;;;;1.95;1.17;;;10.30;99.90;;;;;;5017558;28;1102802;-56
2023/09/14 04:46:27;;;;;;;3.35;1.88;;;10.30;99.90;;;;;;5042054;28;20516;-56
2023/09/14 04:48:53;;;;;;;8.25;1.42;;;10.40;99.90;;;;;;5056357;28;20056;-57
2023/09/14 04:51:21;;;;;;;8.20;3.70;;;10.30;99.90;;;;;;5060318;28;20064;-56
2023/09/14 04:53:46;;;;;;;2.97;1.77;;;10.30;99.90;;;;;;5056063;28;21235;-56
2023/09/14 04:56:12;;;;;;;8.75;1.77;;;10.30;99.90;;;;;;5057209;28;20159;-56
2023/09/14 04:58:38;;;;;;;9.95;1.63;;;10.20;99.90;;;;;;5057816;28;20129;-56
2023/09/14 05:01:05;;;;;;;3.17;1.30;;;10.20;99.90;;;;;;5056330;28;20506;-56
2023/09/14 05:03:31;;;;;;;4.10;1.45;;;10.10;99.90;;;;;;5031952;28;20053;-55
2023/09/14 05:05:57;;;;;;;1.30;1.00;;;10.10;99.90;;;;;;5059509;28;20440;-56
2023/09/14 05:08:26;;;;;;;2.35;1.25;;;10.00;99.90;;;;;;5032565;28;20052;-56
2023/09/14 05:10:52;;;;;;;2.45;1.98;;;10.00;99.90;;;;;;5057984;28;20057;-56
2023/09/14 05:13:20;;;;;;;4.15;1.63;;;10.00;99.90;;;;;;5042538;28;20102;-56
2023/09/14 05:15:47;;;;;;;2.08;1.50;;;10.00;99.90;;;;;;5045691;28;20069;-56
2023/09/14 05:18:12;;;;;;;2.55;2.03;;;10.00;99.90;;;;;;5055058;28;20056;-56
2023/09/14 05:20:42;;;;;;;4.50;1.77;;;10.00;99.90;;;;;;5057942;28;20055;-56
2023/09/14 05:23:08;;;;;;;3.40;1.45;;;9.90;99.90;;;;;;5060219;28;20573;-56
2023/09/14 05:25:34;;;;;;;3.53;1.55;;;9.90;99.90;;;;;;5039491;28;20045;-56
2023/09/14 05:28:00;;;;;;;4.65;1.67;;;9.90;99.90;;;;;;5046693;28;20053;-57
2023/09/14 05:30:25;;;;;;;3.50;1.30;;;9.90;99.90;;;;;;5054078;28;20056;-55
2023/09/14 05:32:51;;;;;;;1.55;1.45;;;9.90;99.90;;;;;;5055525;28;20505;-56
2023/09/14 05:35:18;;;;;;;5.75;1.50;;;9.90;99.90;;;;;;5043388;28;20506;-56
2023/09/14 05:37:44;;;;;;;6.57;1.70;;;9.90;99.90;;;;;;5054551;28;20079;-56
2023/09/14 05:40:12;;;;;;;1.95;1.30;;;10.00;99.90;;;;;;5040400;28;20774;-56
2023/09/14 05:42:41;;;;;;;4.65;1.58;;;10.00;99.90;;;;;;5038569;28;20143;-56
2023/09/14 05:45:09;;;;;;;1.77;1.48;;;10.00;99.90;;;;;;5061141;28;20056;-56
2023/09/14 05:47:35;;;;;;;1.90;1.50;;;10.00;99.90;;;;;;5057699;28;20468;-55
2023/09/14 05:50:01;;;;;;;4.00;2.67;;;10.00;99.90;;;;;;5059862;28;20106;-56
2023/09/14 05:52:27;;;;;;;3.83;1.70;;;10.10;99.90;;;;;;5058531;28;20056;-55
2023/09/14 05:54:53;;;;;;;2.78;1.77;;;10.10;99.90;;;;;;5056172;28;20067;-56
2023/09/14 05:57:18;;;;;;;4.82;1.50;;;10.20;99.90;;;;;;5058581;28;20068;-55
2023/09/14 05:59:44;;;;;;;8.18;1.95;;;10.30;99.90;;;;;;5052313;28;20075;-57
2023/09/14 06:02:10;;;;;;;4.05;1.42;;;10.40;99.90;;;;;;5036356;28;20080;-56
2023/09/14 06:04:35;;;;;;;4.30;1.63;;;10.50;99.90;;;;;;5055353;28;20087;-56
2023/09/14 06:07:01;;;;;;;2.80;1.95;;;10.60;99.90;;;;;;5041509;28;20060;-56
2023/09/14 06:09:27;;;;;;;4.93;2.40;;;10.60;99.90;;;;;;5058510;28;20410;-56
2023/09/14 06:11:56;;;;;;;4.72;1.80;;;10.70;99.90;;;;;;5041595;28;20859;-56
2023/09/14 06:14:26;;;;;;;2.58;1.63;;;10.80;99.90;;;;;;5059791;28;20060;-56
2023/09/14 06:16:52;;;;;;;5.30;2.20;;;10.90;99.90;;;;;;5056999;28;20745;-56
2023/09/14 06:19:18;;;;;;;2.88;1.92;;;11.00;99.90;;;;;;5060125;28;20132;-58
2023/09/14 06:21:43;;;;;;;4.18;1.98;;;11.10;99.90;;;;;;5056886;28;20444;-56
2023/09/14 06:24:09;;;;;;;7.47;2.25;;;11.20;99.90;;;;;;5059299;28;20102;-56
2023/09/14 06:26:35;;;;;;;4.32;1.70;;;11.40;99.90;;;;;;5048061;28;20056;-56
2023/09/14 06:29:01;;;;;;;5.50;1.77;;;11.40;99.90;;;;;;5060097;28;20068;-56
2023/09/14 06:31:26;;;;;;;9.38;2.65;;;11.50;99.90;;;;;;5059267;28;20110;-55
2023/09/14 06:33:52;;;;;;;3.28;1.73;;;11.70;99.90;;;;;;5055540;28;20942;-56
2023/09/14 06:36:18;;;;;;;9.73;2.30;;;11.90;99.90;;;;;;5050125;28;20588;-56
2023/09/14 06:38:48;;;;;;;2.30;1.70;;;12.00;99.90;;;;;;5057137;28;20064;-56
2023/09/14 06:41:14;;;;;;;7.78;2.72;;;12.20;99.90;;;;;;5041543;28;20513;-56
2023/09/14 06:43:46;;;;;;;3.33;2.13;;;12.40;99.90;;;;;;5057069;28;20588;-56
2023/09/14 06:46:13;;;;;;;5.30;1.80;;;12.50;99.90;;;;;;5056409;28;20478;-56
2023/09/14 06:48:39;;;;;;;8.13;1.83;;;12.70;99.90;;;;;;5039402;28;20075;-56
2023/09/14 06:51:08;;;;;;;3.65;1.75;;;12.90;99.90;;;;;;5060719;28;20650;-56
2023/09/14 06:53:34;;;;;;;9.52;2.13;;;13.00;99.90;;;;;;5040951;28;20052;-56
2023/09/14 06:56:10;;;;;;;5.85;1.50;;;13.30;99.90;;;;;;5061365;28;20522;-56
2023/09/14 06:58:37;;;;;;;3.60;1.50;;;13.50;99.90;;;;;;5056576;28;20056;-55
2023/09/14 07:01:04;;;;;;;5.82;2.38;;;13.50;99.90;;;;;;5059114;28;20513;-56
2023/09/14 07:03:31;;;;;;;3.78;1.63;;;13.70;99.90;;;;;;5058028;28;20496;-56
2023/09/14 07:05:57;;;;;;;4.97;1.58;;;13.80;99.90;;;;;;5058024;28;20545;-61
2023/09/14 07:08:26;;;;;;;4.88;1.45;;;14.00;99.90;;;;;;5059495;28;20758;-56
2023/09/14 07:10:54;;;;;;;3.97;1.92;;;14.20;99.90;;;;;;5056583;28;20941;-57
2023/09/14 07:13:20;;;;;;;3.03;1.58;;;14.40;99.90;;;;;;5060128;28;20167;-57
2023/09/14 07:15:46;;;;;;;3.08;1.45;;;14.60;99.90;;;;;;5033232;28;20060;-57
2023/09/14 07:18:26;;;;;;;4.28;1.88;;;14.90;99.90;;;;;;5050116;28;20056;-57
2023/09/14 07:20:52;;;;;;;5.22;2.25;;;15.10;99.90;;;;;;5025384;28;20414;-56
2023/09/14 07:23:19;;;;;;;6.55;1.63;;;15.40;99.90;;;;;;5055491;28;20056;-57
2023/09/14 07:25:44;;;;;;;3.63;1.08;;;15.50;99.90;;;;;;5057861;28;20064;-56
2023/09/14 07:28:11;;;;;;;3.25;1.17;;;15.70;99.90;;;;;;5060509;28;20106;-57
2023/09/14 07:30:37;;;;;;;2.60;1.60;;;15.90;99.90;;;;;;5039787;28;20152;-57
2023/09/14 07:33:03;;;;;;;4.78;1.80;;;16.10;99.90;;;;;;5047205;28;20068;-56
2023/09/14 07:35:29;;;;;;;3.05;1.35;;;16.40;99.90;;;;;;5050717;28;20083;-57
2023/09/14 07:37:55;;;;;;;3.25;1.23;;;16.60;99.90;;;;;;5051789;28;20060;-57
2023/09/14 07:40:21;;;;;;;3.25;1.17;;;16.90;99.90;;;;;;5050869;28;20063;-57
2023/09/14 07:42:47;;;;;;;3.85;1.40;;;17.10;99.90;;;;;;5048901;28;20788;-57
2023/09/14 07:45:12;;;;;;;7.00;2.42;;;17.20;99.90;;;;;;5032093;28;20068;-57
2023/09/14 07:47:38;;;;;;;5.22;1.77;;;17.20;99.90;;;;;;5029307;28;20058;-56
2023/09/14 07:50:04;;;;;;;5.32;1.00;;;17.20;99.90;;;;;;5047893;28;20057;-57
2023/09/14 07:52:30;;;;;;;3.10;1.23;;;17.50;99.90;;;;;;5047944;28;20059;-57
2023/09/14 07:54:56;;;;;;;3.28;1.10;;;17.70;99.90;;;;;;5044752;28;20498;-57
2023/09/14 07:59:52;;;;;;;7.78;1.95;;;17.80;99.90;;;;;;5045851;28;21787;-57
2023/09/14 08:02:17;;;;;;;2.08;1.42;;;17.80;99.90;;;;;;5046030;28;20141;-57
2023/09/14 08:04:43;;;;;;;2.88;1.23;;;18.00;99.90;;;;;;5027531;28;20658;-56
2023/09/14 08:07:09;;;;;;;2.75;0.77;;;18.10;99.90;;;;;;5048073;28;20560;-57
2023/09/14 08:09:34;;;;;;;6.70;1.20;;;18.40;99.90;;;;;;5040696;28;20052;-57
2023/09/14 08:12:00;;;;;;;2.55;1.27;;;18.60;99.90;;;;;;5045117;28;20060;-57
2023/09/14 08:14:29;;;;;;;2.20;0.95;;;19.00;99.90;;;;;;5046025;28;20074;-57
2023/09/14 08:16:54;;;;;;;3.10;1.15;;;19.20;99.90;;;;;;5051973;28;20817;-58
2023/09/14 08:19:20;;;;;;;2.15;1.25;;;19.40;99.90;;;;;;5054567;28;20068;-57
2023/09/14 08:21:46;;;;;;;1.73;0.93;;;19.70;99.90;;;;;;5050240;28;20666;-62
2023/09/14 08:24:11;;;;;;;2.50;0.90;;;20.00;99.90;;;;;;5042316;28;20102;-57
2023/09/14 08:26:37;;;;;;;5.68;1.63;;;20.30;99.90;;;;;;5045918;28;20601;-58
2023/09/14 08:29:03;;;;;;;2.78;1.05;;;20.20;99.90;;;;;;5041759;28;20072;-59
